Mesquite, Nevada Weather observations

Data are for observation ending at time listed.
 Day   Time    Ave.   Ave.  Ave.  Vector   Max.   Stn.    Total    Solar   Ave.  
  of    of     Air    Rel.  Wind   Wind    Wind   Baro.  Precip.   Rad.    Soil  
Year   Day     Temp.  Hum.  Speed  Dir.    Gust   Pres.                    Temp. 
2014   (PST)    F      %     mph   deg.    mph     mb.     in.     W/m2     F   
------------------------------------------------------------------------------
 293    7:50   67.2    41    0.0    72      0.3   950.0    0.00     249    74.4
 293    8:00   69.0    38    0.0     0      0.0   950.0    0.00     270    74.3
 293    8:10   70.3    36    0.0     0      0.0   950.0    0.00     291    74.4
 293    8:20   72.1    32    0.0     0      0.0   950.0    0.00     312    74.4
 293    8:30   73.9    29    0.0     0      0.0   950.0    0.00     332    74.4
 293    8:40   76.0    28    0.0   118      0.1   950.1    0.00     351    74.5
 293    8:50   76.0    28    0.0   173      2.0   950.1    0.00     369    74.6
 293    9:00   76.2    26    0.0     0      0.0   950.1    0.00     387    74.7
 293    9:10   77.4    25    0.0     0      0.0   950.2    0.00     404    74.9
 293    9:20   78.4    25    0.0   219      1.4   950.1    0.00     419    75.1
 293    9:30   79.0    25    0.1   175      2.1   950.1    0.00     434    75.4
 293    9:40   79.8    24    0.8   169      3.1   950.0    0.00     447    75.7
 293    9:50   80.4    24    0.5   131      3.3   950.0    0.00     461    76.1
 293   10:00   80.6    23    0.0   210      1.1   949.9    0.00     473    76.5
 293   10:10   81.6    23    0.1   159      2.1   949.7    0.00     483    77.1
 293   10:20   81.6    22    0.0   202      1.5   949.7    0.00     492    77.6
 293   10:30   82.5    22    1.4   199      5.5   949.6    0.00     499    78.2
 293   10:40   82.0    23    1.7   218      5.5   949.6    0.00     505    78.8
 293   10:50   82.0    23    1.1   228      6.6   949.4    0.00     511    79.4
 293   11:00   83.4    21    0.5   235      3.9   949.3    0.00     516    80.0
 293   11:10   82.2    21    0.2   236      4.9   949.1    0.00     518    80.7
 293   11:20   82.7    21    0.5   239      5.6   949.0    0.00     518    81.3
 293   11:30   82.5    21    0.4   226      5.0   948.7    0.00     519    82.0
 293   11:40   83.3    21    0.4   225      4.4   948.5    0.00     519    82.6
 293   11:50   83.9    22    1.7   233     10.0   948.4    0.00     518    83.3
 293   12:00   83.6    22    0.8   252      5.5   948.2    0.00     514    83.9
 293   12:10   84.3    21    0.3   206      4.4   948.1    0.00     510    84.5
 293   12:20   84.8    21    0.9   208      7.6   947.9    0.00     504    85.1
 293   12:30   84.8    20    0.4   197      4.3   947.8    0.00     497    85.7
 293   12:40   84.8    20    0.5   141      4.7   947.7    0.00     487    86.2
 293   12:50   85.2    20    0.0     0      0.0   947.5    0.00     478    86.8
 293   13:00   85.5    19    0.2   240      4.1   947.4    0.00     467    87.3
 293   13:10   85.5    20    0.0   146      1.5   947.3    0.00     455    87.9
 293   13:20   86.1    19    0.0     0      0.0   947.2    0.00     441    88.4
 293   13:30   86.9    19    0.2   129      4.3   947.1    0.00     427    88.9
 293   13:40   86.7    19    0.2    96      4.2   947.0    0.00     412    89.4
 293   13:50   86.8    19    0.0     0      0.0   947.0    0.00     395    89.8
 293   14:00   86.5    19    0.3   128      5.0   946.9    0.00     377    90.2
 293   14:10   86.9    19    0.8   116      4.7   946.8    0.00     359    90.5
 293   14:20   86.5    19    1.5   298      6.5   946.8    0.00     337    90.8
 293   14:30   86.5    19    0.0   304      0.9   946.7    0.00     317    91.1
 293   14:40   86.7    19    0.1   222      4.6   946.6    0.00     296    91.4
 293   14:50   86.5    20    0.3   204      4.3   946.6    0.00     274    91.6
 293   15:00   86.8    19    0.0     0      0.0   946.5    0.00     252    91.8
 293   15:10   87.3    19    1.3    97      3.7   946.3    0.00     229    92.0
 293   15:20   87.2    19    1.7    51      3.3   946.2    0.00     207    92.2
 293   15:30   87.4    19    1.4    28      3.2   946.1    0.00     183    92.3
 293   15:40   87.5    18    1.2   148      2.8   946.0    0.00     160    92.4
 293   15:50   87.1    19    1.4   143      2.8   945.9    0.00     136    92.4
 293   16:00   86.7    20    1.7   136      4.2   945.8    0.00     114    92.4
 293   16:10   86.7    19    1.7   192      3.6   945.8    0.00      92    92.4
 293   16:20   86.8    19    1.7   208      3.4   945.7    0.00      70    92.2
 293   16:30   86.1    21    1.9   158      3.5   945.6    0.00      47    92.1
 293   16:40   84.1    22    1.9   135      2.9   945.6    0.00      15    91.8
 293   16:50   82.4    24    2.2   110      2.7   945.5    0.00       7    91.5
 293   17:00   81.3    25    2.0    84      2.7   945.5    0.00       3    91.1
 293   17:10   79.9    27    2.4    46      2.9   945.5    0.00       3    90.7
 293   17:20   79.5    26    2.6    47      3.2   945.5    0.00       2    90.3
 293   17:30   78.7    27    3.0    46      3.4   945.6    0.00       0    90.0
 293   17:40   77.9    28    3.1    47      3.4   945.6    0.00       0    89.5
 293   17:50   77.4    28    3.1    42      3.4   945.7    0.00       0    89.2
 293   18:00   77.4    28    3.0    42      3.4   945.7    0.00       0    88.8
 293   18:10   77.2    28    3.8    66      7.5   945.7    0.00       0    88.4
 293   18:20   75.4    30    3.2    82      4.2   945.8    0.00       0    88.1
 293   18:30   73.6    32    4.7    78      5.4   945.7    0.00       0    87.8
 293   18:40   72.9    33    4.7    76      5.8   945.6    0.00       0    87.4
 293   18:50   72.6    33    4.4    76      5.8   945.6    0.00       0    87.2
 293   19:00   73.3    32    2.3    74      3.1   945.7    0.00       0    86.8
 293   19:10   73.4    32    3.0    62      3.7   945.7    0.00       0    86.6
 293   19:20   72.9    32    3.1    93      3.9   945.7    0.00       0    86.3
 293   19:30   72.6    32    2.0    96      3.4   945.7    0.00       0    86.0
 293   19:40   71.9    33    1.3    68      2.3   945.8    0.00       0    85.8
 293   19:50   71.7    33    0.8   341      2.5   945.9    0.00       0    85.5
 293   20:00   71.7    33    0.9    49      2.1   945.9    0.00       0    85.2
 293   20:10   71.9    32    0.5   143      2.9   946.0    0.00       0    85.0
 293   20:20   72.2    33    1.6    93      3.3   946.0    0.00       0    84.7
 293   20:30   70.5    35    2.6   155      5.3   946.0    0.00       0    84.5
 293   20:40   69.9    37    2.8    98      5.5   946.1    0.00       0    84.3
 293   20:50   69.8    36    3.8    65      7.5   946.2    0.00       0    84.1
 293   21:00   70.8    35    2.1   326      7.4   946.2    0.00       0    83.8
 293   21:10   70.5    36    1.9   244      4.0   946.3    0.00       0    83.6
 293   21:20   69.2    39    2.6   219      5.8   946.4    0.00       0    83.4
 293   21:30   68.0    41    1.9   222      4.2   946.5    0.00       0    83.2
 293   21:40   68.5    40    2.7   282      4.5   946.5    0.00       0    83.0
 293   21:50   68.1    41    2.5   237      7.2   946.6    0.00       0    82.8
 293   22:00   67.6    41    3.7   272      8.0   946.5    0.00       0    82.6
 293   22:10   67.9    40    2.4   130      4.8   946.5    0.00       0    82.4
 293   22:20   65.8    45    3.5    66      6.1   946.5    0.00       0    82.2
 293   22:30   64.8    46    0.1    35      5.0   946.5    0.00       0    82.0
 293   22:40   65.7    44    0.0     0      0.0   946.5    0.00       0    81.8
 293   22:50   65.3    45    0.0     0      0.0   946.5    0.00       0    81.7
 293   23:00   66.4    43    0.0     0      0.0   946.5    0.00       0    81.5
 293   23:10   66.9    43    0.0     0      0.0   946.6    0.00       0    81.3
 293   23:20   66.5    43    0.0     0      0.0   946.5    0.00       0    81.2
 293   23:30   65.4    44    0.0     0      0.0   946.5    0.00       0    81.0
 293   23:40   65.8    43    0.0     0      0.0   946.6    0.00       0    80.8
 293   23:50   64.9    44    0.0     0      0.0   946.6    0.00       0    80.7
 294    0:00   65.0    44    0.0     0      0.0   946.6    0.00       0    80.5
 294    0:10   65.7    44    0.0     0      0.0   946.6    0.00       0    80.4
 294    0:20   66.0    44    0.0     0      0.0   946.5    0.00       0    80.3
 294    0:30   65.9    44    0.0     0      0.0   946.5    0.00       0    80.1
 294    0:40   65.5    46    0.0     0      0.0   946.5    0.00       0    80.0
 294    0:50   65.1    46    0.0     0      0.0   946.4    0.00       0    79.9
 294    1:00   64.7    46    0.0     0      0.0   946.6    0.00       0    79.7
 294    1:10   64.8    45    0.0     0      0.0   946.6    0.00       0    79.6
 294    1:20   64.7    46    0.0     0      0.0   946.6    0.00       0    79.5
 294    1:30   63.9    48    0.0     0      0.0   946.5    0.00       0    79.4
 294    1:40   64.7    46    0.0     0      0.0   946.6    0.00       0    79.2
 294    1:50   65.6    45    0.0     0      0.0   946.6    0.00       0    79.1
 294    2:00   65.4    46    0.0     0      0.0   946.6    0.00       0    79.0
 294    2:10   64.9    46    0.0     0      0.0   946.6    0.00       0    78.9
 294    2:20   64.7    46    0.0     0      0.0   946.7    0.00       0    78.7
 294    2:30   63.9    48    0.0     0      0.0   946.7    0.00       0    78.6
 294    2:40   62.8    50    0.0     0      0.0   946.7    0.00       0    78.5
 294    2:50   61.9    53    0.0     0      0.0   946.6    0.00       0    78.4
 294    3:00   62.3    51    0.3    14      4.5   946.6    0.00       0    78.3
 294    3:10   64.8    45    0.0     0      0.0   946.6    0.00       0    78.2
 294    3:20   65.2    45    0.0   348      1.2   946.7    0.00       0    78.0
 294    3:30   66.7    42    0.0   358      2.6   946.6    0.00       0    77.9
 294    3:40   66.4    43    0.0     0      0.0   946.6    0.00       0    77.8
 294    3:50   64.7    46    0.0     0      0.0   946.6    0.00       0    77.7
 294    4:00   62.6    51    0.1   102      3.0   946.6    0.00       0    77.6
 294    4:10   61.6    52    0.0     0      0.0   946.7    0.00       0    77.5
 294    4:20   62.2    51    0.0     0      0.0   946.8    0.00       0    77.4
 294    4:30   62.4    50    0.0     0      0.0   946.8    0.00       0    77.3
 294    4:40   62.9    50    0.0     0      0.0   946.9    0.00       0    77.2
 294    4:50   63.0    49    0.0     0      0.0   947.0    0.00       0    77.1
 294    5:00   62.5    50    0.0     0      0.0   947.1    0.00       0    77.0
 294    5:10   61.8    52    0.0     0      0.0   947.2    0.00       0    76.8
 294    5:20   61.6    52    0.0     0      0.0   947.3    0.00       0    76.7
 294    5:30   61.0    53    0.0     0      0.0   947.4    0.00       0    76.6
 294    5:40   61.1    53    0.0     0      0.0   947.4    0.00       1    76.5
 294    5:50   61.6    52    0.0     0      0.0   947.6    0.00       3    76.4
 294    6:00   61.8    52    0.0     0      0.0   947.6    0.00       3    76.3
 294    6:10   60.9    54    0.0     0      0.0   947.6    0.00       6    76.2
 294    6:20   59.6    57    0.0     0      0.0   947.7    0.00      12    76.1
 294    6:30   59.9    57    0.0     0      0.0   947.6    0.00      35    76.0
 294    6:40   62.0    53    0.0     0      0.0   947.6    0.00      76    75.9
 294    6:50   63.3    51    0.0     0      0.0   947.7    0.00     102    75.8
 294    7:00   64.5    50    0.0     0      0.0   947.9    0.00     125    75.7
 294    7:10   65.9    46    0.0     0      0.0   948.0    0.00     148    75.6
 294    7:20   67.3    44    0.0     0      0.0   948.1    0.00     171    75.5
 294    7:30   68.6    44    0.0     0      0.0   948.2    0.00     194    75.5
 294    7:40   66.9    48    0.2   109      4.2   948.2    0.00     220    75.4

Return to Mesquite, Nevada graphs page.


Western Regional Climate Center,wrcc@dri.edu